Time;durP1;ratioP1;P1;durP2;ratioP2;P2;SDS_P1;SDS_P2;PMS_P1;PMS_P2;Temp;Humidity;BMP_temperature;BMP_pressure;BME280_temperature;BME280_humidity;BME280_pressure;Samples;Min_cycle;Max_cycle;Signal;HPM_P1;HPM_P2
2021/11/14 00:01:20;;;;;;;4.90;2.60;;;;;;;-0.11;81.82;96077.55;1768260;81;21070;-71
2021/11/14 00:03:47;;;;;;;5.13;2.60;;;;;;;-0.30;81.73;96078.73;1768614;81;21536;-71
2021/11/14 00:06:13;;;;;;;5.30;3.33;;;;;;;-0.29;81.98;96080.89;1768286;81;21054;-71
2021/11/14 00:08:40;;;;;;;5.60;4.07;;;;;;;-0.23;82.16;96078.48;1768082;81;21038;-71
2021/11/14 00:11:11;;;;;;;6.10;3.50;;;;;;;-0.19;82.15;96082.94;1768369;81;21061;-71
2021/11/14 00:13:41;;;;;;;7.13;3.40;;;;;;;-0.18;81.94;96088.99;1768868;81;21547;-71
2021/11/14 00:16:10;;;;;;;6.50;3.67;;;;;;;-0.23;82.31;96084.56;1768472;81;20998;-71
2021/11/14 00:18:40;;;;;;;7.47;3.80;;;;;;;-0.20;82.20;96081.19;1768635;81;21066;-71
2021/11/14 00:21:09;;;;;;;5.80;3.37;;;;;;;-0.17;82.31;96085.16;1768484;81;21452;-71
2021/11/14 00:23:35;;;;;;;6.10;3.00;;;;;;;-0.17;82.21;96083.00;1764052;81;21026;-71
2021/11/14 00:26:03;;;;;;;4.90;2.67;;;;;;;-0.16;82.11;96084.73;1756149;82;21090;-71
2021/11/14 00:28:29;;;;;;;4.40;2.73;;;;;;;-0.11;82.14;96085.34;1756464;82;21006;-71
2021/11/14 00:30:58;;;;;;;6.40;2.97;;;;;;;-0.05;82.14;96080.34;1755152;82;21071;-71
2021/11/14 00:33:25;;;;;;;4.00;2.43;;;;;;;-0.02;81.93;96073.08;1756233;82;21529;-71
2021/11/14 00:35:52;;;;;;;3.13;2.13;;;;;;;-0.17;81.31;96079.11;1756381;82;21022;-71
2021/11/14 00:38:22;;;;;;;3.43;2.50;;;;;;;-0.21;81.45;96072.92;1756365;82;21030;-71
2021/11/14 00:40:49;;;;;;;4.80;2.57;;;;;;;-0.22;81.60;96080.25;1756473;82;21022;-71
2021/11/14 00:43:17;;;;;;;4.30;2.67;;;;;;;-0.24;81.54;96079.32;1756623;81;20979;-71
2021/11/14 00:45:47;;;;;;;3.37;2.30;;;;;;;-0.24;81.82;96079.32;1756785;82;21026;-71
2021/11/14 00:48:15;;;;;;;3.80;2.13;;;;;;;-0.31;81.57;96071.76;1756441;81;21011;-71
2021/11/14 00:50:44;;;;;;;3.93;2.90;;;;;;;-0.40;81.87;96075.39;1755898;82;21022;-71
2021/11/14 00:53:13;;;;;;;4.33;2.90;;;;;;;-0.33;82.27;96079.03;1756427;82;21078;-71
2021/11/14 00:55:40;;;;;;;4.03;2.83;;;;;;;-0.29;82.19;96073.12;1756425;82;20999;-71
2021/11/14 00:58:07;;;;;;;5.50;3.00;;;;;;;-0.24;82.28;96076.30;1756265;82;21066;-71
2021/11/14 01:00:35;;;;;;;4.60;2.60;;;;;;;-0.19;82.29;96075.16;1756403;81;20979;-71
2021/11/14 01:03:06;;;;;;;5.27;2.70;;;;;;;-0.15;82.06;96078.70;1756452;82;20979;-71
2021/11/14 01:05:35;;;;;;;4.30;2.80;;;;;;;-0.10;82.00;96080.63;1756018;82;21066;-71
2021/11/14 01:08:04;;;;;;;4.10;2.90;;;;;;;-0.09;81.60;96073.72;1756740;81;21449;-71
2021/11/14 01:10:39;;;;;;;4.20;2.60;;;;;;;-0.14;81.46;96073.58;1756376;81;21556;-71
2021/11/14 01:13:07;;;;;;;4.47;2.67;;;;;;;-0.09;81.58;96073.30;1756541;82;21003;-71
2021/11/14 01:15:35;;;;;;;3.90;2.37;;;;;;;-0.07;81.49;96072.94;1756136;82;21113;-71
2021/11/14 01:18:02;;;;;;;4.57;2.77;;;;;;;-0.05;81.49;96072.96;1756416;82;21010;-71
2021/11/14 01:20:34;;;;;;;5.47;2.43;;;;;;;-0.02;81.43;96075.67;1756327;81;21011;-71
2021/11/14 01:23:05;;;;;;;7.40;2.30;;;;;;;-0.18;80.92;96080.79;1756421;82;21039;-71
2021/11/14 01:25:32;;;;;;;4.83;2.70;;;;;;;-0.28;80.81;96080.05;1777169;81;21053;-71
2021/11/14 01:27:59;;;;;;;3.70;2.30;;;;;;;-0.30;80.89;96086.92;1829646;78;21054;-71
2021/11/14 01:30:31;;;;;;;4.50;2.40;;;;;;;-0.36;81.12;96085.00;1829614;78;20994;-71
2021/11/14 01:33:02;;;;;;;3.50;2.07;;;;;;;-0.33;81.50;96085.51;1829253;78;21002;-71
2021/11/14 01:35:29;;;;;;;4.67;2.43;;;;;;;-0.34;81.49;96090.24;1829551;78;21548;-71
2021/11/14 01:37:57;;;;;;;3.93;2.40;;;;;;;-0.33;81.63;96089.01;1829423;78;20983;-71
2021/11/14 01:40:39;;;;;;;3.20;2.10;;;;;;;-0.34;81.45;96095.00;1829683;78;21044;-71
2021/11/14 01:43:08;;;;;;;2.70;1.77;;;;;;;-0.32;81.36;96093.77;1828937;78;21062;-71
2021/11/14 01:45:35;;;;;;;3.27;2.10;;;;;;;-0.35;81.21;96093.26;1829514;78;21029;-71
2021/11/14 01:48:04;;;;;;;3.87;1.80;;;;;;;-0.50;81.17;96094.95;1829688;78;21472;-71
2021/11/14 01:50:32;;;;;;;4.40;2.33;;;;;;;-0.69;81.95;96088.70;1829598;78;21042;-71
2021/11/14 01:52:59;;;;;;;6.10;2.63;;;;;;;-0.74;82.18;96094.15;1829507;78;20974;-71
2021/11/14 01:55:29;;;;;;;5.20;3.57;;;;;;;-0.67;82.54;96094.39;1829606;78;21022;-71
2021/11/14 01:57:58;;;;;;;4.60;1.80;;;;;;;-0.61;82.65;96094.12;1829590;78;21472;-71
2021/11/14 02:00:42;;;;;;;4.00;2.00;;;;;;;-0.59;82.33;96092.05;1829513;78;21053;-71
2021/11/14 02:03:09;;;;;;;2.80;2.13;;;;;;;-0.67;81.84;96093.52;1829314;78;20975;-71
2021/11/14 02:05:36;;;;;;;5.43;2.50;;;;;;;-0.78;81.68;96094.48;1829278;78;21014;-71
2021/11/14 02:08:07;;;;;;;3.53;2.33;;;;;;;-0.74;82.28;96098.03;1829562;78;20982;-71
2021/11/14 02:10:35;;;;;;;2.97;1.90;;;;;;;-0.64;82.58;96098.80;1829598;78;20990;-71
2021/11/14 02:13:03;;;;;;;3.67;1.90;;;;;;;-0.56;82.44;96092.14;1829677;78;21021;-71
2021/11/14 02:15:30;;;;;;;4.20;2.37;;;;;;;-0.54;82.45;96097.39;1829675;78;21480;-71
2021/11/14 02:17:57;;;;;;;3.57;2.33;;;;;;;-0.60;81.78;96097.20;1829577;78;21010;-71
2021/11/14 02:20:25;;;;;;;4.07;2.40;;;;;;;-0.60;81.88;96098.08;1829430;78;21484;-71
2021/11/14 02:22:52;;;;;;;4.10;2.40;;;;;;;-0.54;82.34;96091.78;1829470;78;20993;-71
2021/11/14 02:25:22;;;;;;;3.67;2.00;;;;;;;-0.43;82.59;96089.52;1826349;78;21002;-71
2021/11/14 02:27:53;;;;;;;3.83;2.20;;;;;;;-0.42;81.87;96087.41;1826032;78;21002;-71
2021/11/14 02:30:21;;;;;;;3.23;2.40;;;;;;;-0.40;82.41;96084.45;1826276;78;21014;-71
2021/11/14 02:32:50;;;;;;;4.10;2.40;;;;;;;-0.31;82.17;96092.92;1826221;78;20963;-71
2021/11/14 02:35:18;;;;;;;3.90;2.53;;;;;;;-0.31;82.03;96087.73;1825823;78;20962;-71
2021/11/14 02:37:45;;;;;;;5.03;2.67;;;;;;;-0.31;82.03;96090.33;1826138;78;21061;-70
2021/11/14 02:40:13;;;;;;;3.33;2.33;;;;;;;-0.40;81.88;96092.23;1826178;78;21040;-71
2021/11/14 02:42:41;;;;;;;3.33;1.87;;;;;;;-0.42;81.57;96095.61;1825760;78;21018;-71
2021/11/14 02:45:10;;;;;;;2.87;2.10;;;;;;;-0.48;81.23;96098.48;1826140;78;20971;-71
2021/11/14 02:47:37;;;;;;;3.57;2.23;;;;;;;-0.51;81.24;96101.37;1826247;78;20978;-71
2021/11/14 02:50:08;;;;;;;3.73;2.13;;;;;;;-0.60;81.25;96104.98;1825910;78;20989;-70
2021/11/14 02:52:36;;;;;;;4.03;2.27;;;;;;;-0.68;81.40;96098.22;1826230;78;20982;-71
2021/11/14 02:55:05;;;;;;;3.30;2.40;;;;;;;-0.61;82.07;96100.61;1826343;78;20989;-70
2021/11/14 02:57:32;;;;;;;2.57;1.80;;;;;;;-0.54;82.15;96094.80;1826085;78;20994;-70
2021/11/14 02:59:58;;;;;;;3.33;2.10;;;;;;;-0.51;82.07;96093.17;1826146;78;21005;-71
2021/11/14 03:02:25;;;;;;;2.57;1.47;;;;;;;-0.56;81.80;96090.84;1825810;78;21090;-71
2021/11/14 03:04:52;;;;;;;2.70;1.80;;;;;;;-0.63;81.52;96096.69;1826149;78;20966;-71
2021/11/14 03:07:19;;;;;;;7.77;3.63;;;;;;;-0.66;81.89;96102.66;1825686;78;20988;-71
2021/11/14 03:09:45;;;;;;;2.57;1.87;;;;;;;-0.70;82.06;96098.19;1826266;78;20986;-70
2021/11/14 03:12:12;;;;;;;4.83;2.60;;;;;;;-0.70;82.26;96101.20;1825767;78;21528;-71
2021/11/14 03:14:38;;;;;;;5.50;2.90;;;;;;;-0.70;82.11;96099.91;1826252;78;21017;-71
2021/11/14 03:17:05;;;;;;;6.07;3.73;;;;;;;-0.66;82.39;96093.98;1825953;78;21519;-71
2021/11/14 03:19:32;;;;;;;7.67;4.33;;;;;;;-0.60;82.41;96093.32;1826011;78;21038;-71
2021/11/14 03:21:59;;;;;;;4.07;2.33;;;;;;;-0.54;82.48;96093.50;1825599;78;21473;-71
2021/11/14 03:24:25;;;;;;;5.17;2.60;;;;;;;-0.56;81.96;96091.27;1827796;78;21045;-71
2021/11/14 03:26:52;;;;;;;3.13;1.73;;;;;;;-0.64;81.39;96095.33;1831535;78;21045;-71
2021/11/14 03:29:19;;;;;;;4.03;1.90;;;;;;;-0.71;81.50;96097.70;1832292;78;20938;-71
2021/11/14 03:31:47;;;;;;;7.47;3.87;;;;;;;-0.74;81.61;96098.03;1831620;78;21085;-71
2021/11/14 03:34:14;;;;;;;6.37;4.23;;;;;;;-0.81;82.00;96105.14;1831787;78;21038;-70
2021/11/14 03:36:41;;;;;;;5.80;3.60;;;;;;;-0.84;82.23;96102.45;1831359;78;21025;-71
2021/11/14 03:39:08;;;;;;;7.30;3.17;;;;;;;-0.84;82.76;96107.20;1831573;78;21539;-70
2021/11/14 03:41:40;;;;;;;4.83;2.43;;;;;;;-0.80;82.74;96101.73;1831570;78;21005;-71
2021/11/14 03:44:11;;;;;;;3.97;2.73;;;;;;;-0.72;82.70;96105.03;1832136;78;21028;-71
2021/11/14 03:46:38;;;;;;;3.63;2.40;;;;;;;-0.68;82.60;96104.70;1831860;78;21010;-71
2021/11/14 03:49:06;;;;;;;5.13;2.10;;;;;;;-0.64;82.49;96103.11;1832090;78;20990;-71
2021/11/14 03:51:34;;;;;;;5.73;2.80;;;;;;;-0.72;82.07;96101.56;1831807;78;21061;-71
2021/11/14 03:54:00;;;;;;;4.07;2.50;;;;;;;-0.77;81.99;96100.53;1832088;78;20986;-71
2021/11/14 03:56:29;;;;;;;3.80;2.10;;;;;;;-0.87;81.83;96104.52;1831725;78;21049;-71
2021/11/14 03:58:56;;;;;;;2.90;1.70;;;;;;;-0.96;81.96;96106.80;1831768;78;21479;-71
2021/11/14 04:01:24;;;;;;;3.20;1.90;;;;;;;-0.99;82.01;96108.87;1832029;78;21037;-71
2021/11/14 04:03:52;;;;;;;2.07;1.60;;;;;;;-0.97;82.36;96105.05;1832009;78;21006;-71
2021/11/14 04:06:21;;;;;;;3.43;1.90;;;;;;;-0.90;82.74;96103.13;1831537;78;21014;-71
2021/11/14 04:08:48;;;;;;;2.20;1.63;;;;;;;-0.88;82.60;96094.58;1832048;78;20942;-71
2021/11/14 04:11:15;;;;;;;3.33;1.80;;;;;;;-0.87;82.35;96096.33;1832046;78;21030;-71
2021/11/14 04:13:42;;;;;;;4.67;2.57;;;;;;;-0.83;82.41;96094.74;1831645;78;21014;-71
2021/11/14 04:16:10;;;;;;;5.50;2.83;;;;;;;-0.81;82.54;96098.66;1831951;78;21006;-71
2021/11/14 04:18:37;;;;;;;4.53;2.30;;;;;;;-0.80;82.35;96095.26;1831996;78;21020;-71
2021/11/14 04:21:05;;;;;;;5.23;2.80;;;;;;;-0.76;82.38;96102.28;1831832;78;20962;-71
2021/11/14 04:23:33;;;;;;;4.07;2.53;;;;;;;-0.68;82.49;96098.22;1832187;78;21001;-71
2021/11/14 04:26:00;;;;;;;2.67;2.00;;;;;;;-0.68;82.10;96105.61;1831706;78;21101;-71
2021/11/14 04:28:27;;;;;;;4.77;2.10;;;;;;;-0.67;82.13;96100.00;1832022;78;21002;-71
2021/11/14 04:30:54;;;;;;;3.37;1.80;;;;;;;-0.69;81.89;96106.42;1831750;78;21093;-71
2021/11/14 04:33:21;;;;;;;3.33;1.80;;;;;;;-0.70;81.74;96107.27;1832073;78;21060;-71
2021/11/14 04:35:49;;;;;;;4.43;2.00;;;;;;;-0.77;81.41;96110.47;1831811;78;21012;-71
2021/11/14 04:38:16;;;;;;;3.33;2.07;;;;;;;-0.85;81.28;96114.95;1831654;78;21094;-71
2021/11/14 04:40:45;;;;;;;3.40;1.80;;;;;;;-0.97;81.58;96120.17;1802657;78;20962;-71
2021/11/14 04:43:15;;;;;;;2.40;1.70;;;;;;;-0.93;81.91;96122.47;1832019;78;21472;-71
2021/11/14 04:45:42;;;;;;;2.40;1.53;;;;;;;-0.90;81.92;96120.84;1832064;78;21044;-71
2021/11/14 04:48:08;;;;;;;3.87;1.80;;;;;;;-0.97;81.77;96125.34;1832171;78;21005;-71
2021/11/14 04:50:35;;;;;;;3.00;2.00;;;;;;;-1.08;81.36;96128.00;1831669;78;21068;-71
2021/11/14 04:53:04;;;;;;;6.77;2.17;;;;;;;-1.05;81.89;96122.92;1831878;78;21045;-71
2021/11/14 04:55:34;;;;;;;3.57;1.97;;;;;;;-0.98;82.12;96125.31;1832015;78;20951;-71
2021/11/14 04:58:01;;;;;;;3.77;1.90;;;;;;;-0.95;82.11;96122.40;1831989;78;20978;-71
2021/11/14 05:00:36;;;;;;;4.20;1.70;;;;;;;-1.01;81.89;96122.59;1831995;78;21037;-71
2021/11/14 05:03:03;;;;;;;3.77;1.80;;;;;;;-0.98;82.10;96125.31;1826962;78;21006;-71
2021/11/14 05:05:30;;;;;;;2.23;1.60;;;;;;;-0.95;82.29;96130.17;1831687;78;21057;-71
2021/11/14 05:07:56;;;;;;;7.57;1.80;;;;;;;-0.89;82.15;96130.78;1831893;78;21025;-71
2021/11/14 05:10:23;;;;;;;4.77;1.73;;;;;;;-0.88;82.15;96133.44;1832003;78;21451;-71
2021/11/14 05:12:49;;;;;;;3.67;2.10;;;;;;;-0.81;82.20;96128.45;1831746;78;21030;-71
2021/11/14 05:15:16;;;;;;;3.67;2.17;;;;;;;-0.83;81.98;96130.11;1832104;78;20938;-71
2021/11/14 05:17:42;;;;;;;5.30;1.77;;;;;;;-0.78;81.93;96126.86;1831690;78;21530;-70
2021/11/14 05:20:11;;;;;;;2.83;1.60;;;;;;;-0.78;81.82;96120.39;1831608;78;20975;-71
2021/11/14 05:22:38;;;;;;;16.87;8.30;;;;;;;-0.90;81.34;96129.04;1831870;78;21005;-71
2021/11/14 05:25:06;;;;;;;11.10;5.90;;;;;;;-1.00;81.23;96135.61;1831299;78;21002;-71
2021/11/14 05:27:34;;;;;;;13.90;5.87;;;;;;;-1.10;81.33;96124.47;1832180;78;21006;-71
2021/11/14 05:30:01;;;;;;;4.70;2.30;;;;;;;-1.13;81.42;96132.14;1831629;78;21069;-70
2021/11/14 05:32:27;;;;;;;3.07;1.77;;;;;;;-1.12;81.64;96129.58;1831646;78;21464;-71
2021/11/14 05:34:54;;;;;;;1.53;1.37;;;;;;;-1.20;81.80;96132.75;1831642;78;21081;-71
2021/11/14 05:37:20;;;;;;;5.30;2.40;;;;;;;-1.22;81.92;96143.45;1831999;78;20994;-71
2021/11/14 05:39:47;;;;;;;3.80;1.83;;;;;;;-1.21;82.05;96141.32;1831992;78;21037;-71
2021/11/14 05:42:14;;;;;;;6.33;2.90;;;;;;;-1.27;82.13;96139.41;1831666;78;21403;-71
2021/11/14 05:44:40;;;;;;;8.77;4.93;;;;;;;-1.21;82.73;96154.27;1829106;78;21017;-71
2021/11/14 05:47:07;;;;;;;15.00;6.20;;;;;;;-1.16;82.89;96154.92;1831661;78;21097;-71
2021/11/14 05:49:33;;;;;;;10.20;5.03;;;;;;;-1.09;82.86;96152.98;1832109;78;20986;-71
2021/11/14 05:52:00;;;;;;;5.80;3.50;;;;;;;-1.02;82.76;96150.21;1831835;78;21069;-71
2021/11/14 05:54:27;;;;;;;6.53;3.60;;;;;;;-0.99;82.48;96155.48;1831876;78;21464;-71
2021/11/14 05:56:54;;;;;;;2.87;2.00;;;;;;;-0.96;82.27;96150.83;1831637;78;21073;-71
2021/11/14 06:02:12;;;;;;;2.97;2.10;;;;;;;-0.76;82.46;96158.86;1831641;78;21025;-71
2021/11/14 06:07:05;;;;;;;3.37;1.60;;;;;;;-0.65;81.74;96156.66;1831660;78;21010;-71
2021/11/14 06:09:32;;;;;;;2.57;1.97;;;;;;;-0.69;81.46;96158.66;1831996;78;21125;-71
2021/11/14 06:11:58;;;;;;;2.50;1.73;;;;;;;-0.71;81.34;96159.90;1831751;78;20994;-71
2021/11/14 06:14:25;;;;;;;3.20;1.80;;;;;;;-0.64;82.08;96153.22;1831760;78;21060;-71
2021/11/14 06:16:51;;;;;;;2.03;1.53;;;;;;;-0.57;82.11;96160.37;1831916;78;21487;-71
2021/11/14 06:19:18;;;;;;;52.10;23.97;;;;;;;-0.58;81.75;96163.81;1832073;78;21061;-70
2021/11/14 06:21:44;;;;;;;17.30;7.27;;;;;;;-0.61;81.94;96158.50;1831502;78;21010;-70
2021/11/14 06:24:11;;;;;;;6.53;3.33;;;;;;;-0.51;82.44;96159.27;1831979;78;21007;-71
2021/11/14 06:26:37;;;;;;;2.37;1.60;;;;;;;-0.48;82.10;96155.89;1822317;78;20994;-71
2021/11/14 06:29:04;;;;;;;3.17;1.53;;;;;;;-0.43;82.32;96158.22;1821130;79;21512;-70
2021/11/14 06:31:31;;;;;;;2.90;1.80;;;;;;;-0.46;82.32;96159.42;1820449;79;21584;-70
2021/11/14 06:33:57;;;;;;;2.13;1.20;;;;;;;-0.47;82.66;96164.16;1821377;79;21006;-70
2021/11/14 06:36:23;;;;;;;1.93;1.40;;;;;;;-0.52;83.29;96169.19;1793625;79;21078;-68
2021/11/14 06:38:50;;;;;;;3.90;2.30;;;;;;;-0.52;83.51;96163.12;1821145;79;21484;-70
2021/11/14 06:41:16;;;;;;;4.10;1.87;;;;;;;-0.39;83.59;96161.81;1821126;79;21037;-70
2021/11/14 06:43:43;;;;;;;2.17;1.70;;;;;;;-0.21;83.78;96161.10;1821032;79;20971;-70
2021/11/14 06:46:11;;;;;;;8.63;4.50;;;;;;;-0.06;83.79;96161.58;1821181;79;21489;-71
2021/11/14 06:48:38;;;;;;;4.53;3.50;;;;;;;0.02;83.30;96155.75;1821053;79;21003;-70
2021/11/14 06:51:05;;;;;;;5.43;3.07;;;;;;;0.17;83.29;96157.09;1821010;79;21519;-71
2021/11/14 06:53:31;;;;;;;3.17;2.40;;;;;;;0.24;83.00;96155.58;1821063;79;21030;-70
2021/11/14 06:55:58;;;;;;;4.97;2.83;;;;;;;0.31;82.84;96160.13;1821071;79;21002;-71
2021/11/14 06:58:25;;;;;;;4.13;2.50;;;;;;;0.38;82.90;96154.70;1821120;79;21041;-70
2021/11/14 07:00:51;;;;;;;8.50;5.37;;;;;;;0.46;82.60;96149.31;1820891;79;20987;-70
2021/11/14 07:03:19;;;;;;;9.77;4.93;;;;;;;0.50;82.48;96150.27;1821160;79;20963;-71
2021/11/14 07:05:46;;;;;;;6.73;3.37;;;;;;;0.49;82.36;96151.98;1820903;79;21027;-71
2021/11/14 07:08:12;;;;;;;5.57;3.07;;;;;;;0.50;82.27;96160.23;1820551;79;21531;-72
2021/11/14 07:10:39;;;;;;;5.57;3.60;;;;;;;0.57;82.28;96153.51;1821366;79;21050;-71
2021/11/14 07:13:06;;;;;;;5.47;3.13;;;;;;;0.68;82.69;96157.70;1821259;79;20967;-70
2021/11/14 07:15:33;;;;;;;4.83;3.33;;;;;;;0.72;82.41;96153.94;1820812;79;21041;-70
2021/11/14 07:18:00;;;;;;;6.73;3.70;;;;;;;0.78;82.19;96158.03;1821152;79;21480;-71
2021/11/14 07:20:27;;;;;;;7.70;3.80;;;;;;;0.86;82.36;96157.81;1821393;79;21018;-70
2021/11/14 07:22:53;;;;;;;7.70;4.60;;;;;;;0.85;82.04;96156.46;1820604;79;21065;-71
2021/11/14 07:25:20;;;;;;;7.63;4.70;;;;;;;0.90;82.17;96156.17;1822420;78;21041;-70
2021/11/14 07:27:51;;;;;;;8.00;5.30;;;;;;;0.91;82.34;96155.35;1825809;78;21057;-71
2021/11/14 07:30:20;;;;;;;11.63;6.70;;;;;;;0.96;82.44;96155.45;1825925;78;21111;-71
2021/11/14 07:32:46;;;;;;;11.10;7.20;;;;;;;1.13;82.53;96157.22;1826038;78;21053;-71
2021/11/14 07:35:16;;;;;;;12.90;7.43;;;;;;;1.26;82.43;96156.69;1825749;79;21041;-70
2021/11/14 07:37:43;;;;;;;13.83;7.83;;;;;;;1.34;82.00;96146.52;1825971;78;20974;-71
2021/11/14 07:40:13;;;;;;;14.43;8.17;;;;;;;1.37;81.92;96150.06;1826257;78;21065;-70
2021/11/14 07:42:44;;;;;;;14.17;8.83;;;;;;;1.50;81.83;96146.93;1826073;78;21022;-71
2021/11/14 07:45:13;;;;;;;14.47;8.70;;;;;;;1.53;81.70;96147.85;1826033;78;21010;-70
2021/11/14 07:47:40;;;;;;;15.10;8.47;;;;;;;1.53;81.63;96148.72;1826217;78;21480;-71
2021/11/14 07:50:10;;;;;;;20.40;11.17;;;;;;;1.58;81.80;96153.63;1825794;78;21010;-71
2021/11/14 07:52:36;;;;;;;19.87;11.93;;;;;;;1.64;81.69;96156.82;1825970;78;21025;-70
2021/11/14 07:55:07;;;;;;;21.97;13.33;;;;;;;1.79;81.90;96151.08;1825790;79;21481;-70
2021/11/14 07:57:33;;;;;;;22.40;13.97;;;;;;;1.94;81.97;96154.05;1826053;78;21010;-71
2021/11/14 08:00:00;;;;;;;19.17;12.47;;;;;;;2.12;81.90;96147.98;1826058;78;21037;-71
2021/11/14 08:02:27;;;;;;;24.07;13.97;;;;;;;2.27;81.58;96146.55;1826207;78;21452;-71
2021/11/14 08:04:54;;;;;;;18.53;12.37;;;;;;;2.31;81.27;96142.75;1825972;78;20958;-71
2021/11/14 08:07:20;;;;;;;23.73;12.47;;;;;;;2.41;81.28;96142.54;1825921;78;21548;-71
2021/11/14 08:09:47;;;;;;;26.00;15.53;;;;;;;2.55;81.05;96146.75;1826203;78;20938;-71
2021/11/14 08:12:13;;;;;;;22.30;13.57;;;;;;;2.62;81.05;96142.53;1825775;79;21094;-71
2021/11/14 08:14:40;;;;;;;22.57;14.27;;;;;;;2.71;81.16;96138.83;1826176;78;21013;-71
2021/11/14 08:17:07;;;;;;;24.57;14.70;;;;;;;2.79;81.11;96138.12;1826013;78;21535;-71
2021/11/14 08:19:33;;;;;;;29.10;16.63;;;;;;;2.92;80.93;96139.67;1825916;78;21026;-71
2021/11/14 08:22:00;;;;;;;26.13;17.17;;;;;;;3.04;81.00;96138.17;1826196;78;20966;-71
2021/11/14 08:24:26;;;;;;;23.00;14.80;;;;;;;3.19;80.99;96137.59;1825961;78;20962;-71
2021/11/14 08:26:53;;;;;;;18.70;13.70;;;;;;;3.41;80.93;96131.04;1825591;79;21530;-71
2021/11/14 08:29:19;;;;;;;21.33;14.53;;;;;;;3.55;80.59;96136.48;1825791;79;20991;-71
2021/11/14 08:31:46;;;;;;;19.17;12.50;;;;;;;3.72;80.54;96134.17;1825870;78;21078;-71
2021/11/14 08:34:13;;;;;;;20.40;13.77;;;;;;;3.82;79.65;96130.85;1826137;78;21472;-71
2021/11/14 08:36:40;;;;;;;19.03;12.17;;;;;;;3.90;79.56;96127.05;1826197;78;21034;-71
2021/11/14 08:39:06;;;;;;;20.73;13.73;;;;;;;3.99;78.96;96129.82;1825763;78;20998;-71
2021/11/14 08:41:33;;;;;;;24.20;15.73;;;;;;;4.15;78.84;96124.83;1826195;78;21006;-71
2021/11/14 08:44:00;;;;;;;27.03;17.73;;;;;;;4.28;78.91;96122.83;1826268;78;20987;-71
2021/11/14 08:46:27;;;;;;;25.90;17.50;;;;;;;4.46;78.89;96129.64;1826091;78;20975;-70
2021/11/14 08:48:54;;;;;;;28.87;19.20;;;;;;;4.60;78.29;96123.71;1826301;78;21003;-71
2021/11/14 08:51:23;;;;;;;34.43;20.73;;;;;;;4.74;78.12;96130.00;1825910;78;20987;-71
2021/11/14 08:53:49;;;;;;;31.10;21.17;;;;;;;4.92;78.46;96130.22;1826079;78;21010;-71
2021/11/14 08:56:16;;;;;;;32.80;19.90;;;;;;;5.12;78.23;96118.68;1826485;78;21033;-71
2021/11/14 08:58:43;;;;;;;32.07;18.50;;;;;;;5.31;77.23;96122.78;1826293;78;21002;-71
2021/11/14 09:01:11;;;;;;;31.60;19.73;;;;;;;5.45;76.79;96115.96;1826268;78;21452;-72
2021/11/14 09:03:38;;;;;;;28.37;19.47;;;;;;;5.61;76.06;96115.22;1826154;78;21534;-71
2021/11/14 09:06:05;;;;;;;27.97;19.33;;;;;;;5.85;76.60;96121.11;1826162;78;21492;-71
2021/11/14 09:08:33;;;;;;;33.53;20.27;;;;;;;6.03;76.21;96120.85;1825698;78;21014;-71
2021/11/14 09:10:59;;;;;;;29.30;20.60;;;;;;;6.24;74.90;96118.80;1826489;78;20994;-72
2021/11/14 09:13:26;;;;;;;24.50;15.20;;;;;;;6.40;75.50;96110.19;1825889;78;21003;-71
2021/11/14 09:15:53;;;;;;;19.50;13.03;;;;;;;6.54;75.19;96115.93;1826265;78;20954;-72
2021/11/14 09:18:20;;;;;;;15.83;10.83;;;;;;;6.73;74.12;96117.79;1826325;78;21026;-69
2021/11/14 09:20:48;;;;;;;18.13;10.57;;;;;;;6.86;73.04;96105.16;1825918;78;21041;-69
2021/11/14 09:23:15;;;;;;;19.70;9.37;;;;;;;6.94;71.53;96105.19;1826090;78;21019;-69
2021/11/14 09:25:43;;;;;;;10.13;6.40;;;;;;;7.11;71.70;96100.00;1821593;78;20946;-70
2021/11/14 09:28:12;;;;;;;10.50;7.10;;;;;;;7.24;70.66;96099.16;1831683;78;21002;-70
2021/11/14 09:30:44;;;;;;;10.80;4.93;;;;;;;7.41;69.74;96096.58;1831965;78;21044;-70
2021/11/14 09:33:12;;;;;;;7.97;5.97;;;;;;;7.60;69.45;96093.52;1831972;78;21500;-70
2021/11/14 09:35:39;;;;;;;9.13;4.57;;;;;;;7.78;68.54;96093.52;1831721;78;20994;-70
2021/11/14 09:38:06;;;;;;;6.33;3.93;;;;;;;7.97;65.35;96083.03;1831779;78;21022;-70
2021/11/14 09:40:34;;;;;;;8.27;4.67;;;;;;;8.18;66.39;96079.50;1831669;78;21090;-70
2021/11/14 09:43:02;;;;;;;5.20;3.57;;;;;;;8.37;66.10;96082.53;1831980;78;20978;-70
2021/11/14 09:45:31;;;;;;;5.93;4.07;;;;;;;8.65;65.94;96073.28;1831662;78;21599;-70
2021/11/14 09:47:58;;;;;;;6.03;3.23;;;;;;;8.86;63.89;96069.69;1832151;78;21515;-70
2021/11/14 09:50:27;;;;;;;5.83;3.50;;;;;;;9.30;64.01;96073.42;1831836;78;21307;-70
2021/11/14 09:52:54;;;;;;;7.43;3.50;;;;;;;9.96;57.29;96062.39;1831830;78;20994;-70
2021/11/14 09:55:21;;;;;;;5.10;3.27;;;;;;;10.65;60.23;96058.66;1831673;78;21014;-70
2021/11/14 09:57:48;;;;;;;5.00;3.07;;;;;;;11.23;56.91;96052.19;1831690;78;21069;-69
2021/11/14 10:00:18;;;;;;;2.95;2.60;;;;;;;11.74;54.10;96054.53;1831923;78;21558;-70
2021/11/14 10:02:47;;;;;;;3.58;2.60;;;;;;;12.28;49.83;96055.42;1832052;78;21101;-70
2021/11/14 10:05:15;;;;;;;5.78;4.78;;;;;;;12.91;50.62;96054.22;1832103;78;20990;-70
2021/11/14 10:08:03;;;;;;;4.42;3.70;;;;;;;13.52;50.54;96047.22;1832023;78;21444;-70
2021/11/14 10:10:36;;;;;;;3.10;2.80;;;;;;;13.95;42.98;96046.19;1832242;78;21002;-71
2021/11/14 10:13:14;;;;;;;5.05;3.58;;;;;;;14.36;40.61;96038.49;1832321;78;21017;-71
2021/11/14 10:15:44;;;;;;;4.60;3.35;;;;;;;14.79;41.00;96028.52;1825801;78;20967;-71
2021/11/14 10:18:12;;;;;;;5.05;3.27;;;;;;;15.10;34.24;96024.55;1831680;78;20989;-71
2021/11/14 10:20:40;;;;;;;5.37;2.72;;;;;;;15.51;40.18;96021.09;1831657;78;21046;-71
2021/11/14 10:23:14;;;;;;;3.67;2.80;;;;;;;15.97;40.59;96025.82;1831770;78;21014;-72
2021/11/14 10:25:45;;;;;;;3.40;3.10;;;;;;;16.30;36.00;96018.09;1832062;78;21474;-71
2021/11/14 10:28:12;;;;;;;3.90;3.20;;;;;;;16.70;38.04;96019.37;1821276;78;21041;-71
2021/11/14 10:30:44;;;;;;;4.00;3.12;;;;;;;17.10;36.94;96020.14;1821181;79;21522;-72
2021/11/14 10:33:15;;;;;;;3.27;2.95;;;;;;;17.46;35.57;96021.89;1820599;79;20971;-72
2021/11/14 10:35:46;;;;;;;3.70;2.98;;;;;;;17.79;32.55;96015.25;1821429;79;21006;-72
2021/11/14 10:38:17;;;;;;;3.95;2.75;;;;;;;18.07;36.12;96010.58;1821140;79;21021;-71
2021/11/14 10:40:52;;;;;;;4.15;3.35;;;;;;;18.42;32.58;96011.34;1820940;79;20982;-71
2021/11/14 10:43:22;;;;;;;4.05;3.45;;;;;;;18.67;32.39;96012.04;1821440;79;21033;-71
2021/11/14 10:45:50;;;;;;;4.75;3.90;;;;;;;18.81;29.16;96004.77;1821154;79;20991;-71
2021/11/14 10:48:21;;;;;;;6.47;5.62;;;;;;;18.72;27.96;96013.14;1821232;79;21029;-72
2021/11/14 10:50:55;;;;;;;5.67;4.00;;;;;;;18.90;28.23;96010.16;1820948;79;20975;-72
2021/11/14 10:53:31;;;;;;;3.92;3.30;;;;;;;19.31;32.76;96014.97;1821002;79;21021;-72
2021/11/14 10:56:07;;;;;;;4.53;3.08;;;;;;;19.39;29.31;96008.79;1821151;79;20958;-71
2021/11/14 10:58:34;;;;;;;4.03;3.30;;;;;;;19.54;30.13;96009.88;1821230;79;20983;-71
2021/11/14 11:01:05;;;;;;;4.25;3.42;;;;;;;19.68;28.53;96002.58;1820886;79;21018;-72
2021/11/14 11:03:40;;;;;;;3.77;3.33;;;;;;;19.85;29.27;96003.94;1821276;79;21024;-72
2021/11/14 11:06:10;;;;;;;5.35;3.98;;;;;;;20.16;28.46;95998.88;1821291;79;20998;-72
2021/11/14 11:08:37;;;;;;;3.72;3.40;;;;;;;20.34;27.52;96007.36;1794158;79;21033;-72
2021/11/14 11:11:07;;;;;;;5.95;3.70;;;;;;;20.49;27.09;95999.02;1821383;79;20994;-72
2021/11/14 11:13:44;;;;;;;5.45;3.60;;;;;;;20.71;28.67;95986.27;1821211;79;20982;-72
2021/11/14 11:16:24;;;;;;;5.47;3.58;;;;;;;20.74;27.13;95993.28;1821308;79;21042;-72
2021/11/14 11:19:08;;;;;;;5.00;3.50;;;;;;;20.90;27.55;95991.50;1821315;79;20986;-72
2021/11/14 11:21:42;;;;;;;4.62;3.60;;;;;;;20.77;30.57;95996.27;1820195;79;21042;-72
2021/11/14 11:24:17;;;;;;;5.12;3.70;;;;;;;20.91;30.78;95995.05;1821116;79;21046;-72
2021/11/14 11:27:05;;;;;;;5.10;3.85;;;;;;;21.06;27.44;95988.86;1821345;78;21019;-72
2021/11/14 11:29:37;;;;;;;4.58;3.80;;;;;;;21.31;28.13;95999.13;1826004;78;20970;-72
2021/11/14 11:32:06;;;;;;;4.28;3.60;;;;;;;21.51;27.03;95995.88;1826093;78;21540;-72
2021/11/14 11:34:35;;;;;;;3.92;3.62;;;;;;;21.62;26.21;95993.47;1826084;78;21029;-72
2021/11/14 11:37:02;;;;;;;4.80;3.83;;;;;;;21.69;25.24;95993.97;1825848;78;21061;-72
2021/11/14 11:39:30;;;;;;;4.50;4.10;;;;;;;22.02;26.32;95988.49;1825928;78;21045;-71
2021/11/14 11:41:59;;;;;;;4.08;3.67;;;;;;;22.08;25.34;95994.88;1825628;78;21010;-72